Sunny Side, Georgia
Current Conditions -  °F | °C
As of 9:53 AM on Wednesday 26 Nov 2014 (Local Time) from KFFC Reporting Station
Clear Clear  
Wind Chill: 44°   Ceiling: Unl
Heat Index: 48°   Visibility: 10mi
Dew Point: 30°   Wind: 9mph
Humidity: 50%   Direction: 290°WNW
Pressure: 30.12"   Gusts: NA
Location:  33.34°N, 84.29°W
Report Text: KFFC 261453Z AUTO 29008KT 10SM CLR 09/M01 A3012 RMK AO2 SLP201 T00891011 53026
Loading
Personal Weather Stations






























Interactive Weather Map New forecast layout! Learn more

10-Day Weather Forecast

Advertisements
Track Severe Weather on mobile